Time;durP1;ratioP1;P1;durP2;ratioP2;P2;SDS_P1;SDS_P2;PMS_P1;PMS_P2;Temp;Humidity;BMP_temperature;BMP_pressure;BME280_temperature;BME280_humidity;BME280_pressure;Samples;Min_cycle;Max_cycle;Signal;HPM_P1;HPM_P2
2023/03/14 00:01:19;;;;;;;13.00;3.73;;;21.60;91.90;;;;;;5015708;28;20529;-71
2023/03/14 00:03:48;;;;;;;23.93;4.23;;;21.60;91.70;;;;;;5015153;28;20173;-76
2023/03/14 00:06:15;;;;;;;20.50;3.70;;;21.40;91.20;;;;;;5015262;28;20181;-76
2023/03/14 00:08:45;;;;;;;16.43;3.53;;;21.00;91.40;;;;;;5014941;28;20180;-70
2023/03/14 00:11:16;;;;;;;18.87;4.20;;;20.90;91.90;;;;;;5014452;28;20189;-74
2023/03/14 00:13:43;;;;;;;13.97;3.70;;;20.80;92.30;;;;;;5015020;28;20221;-73
2023/03/14 00:16:12;;;;;;;17.73;3.83;;;20.80;92.40;;;;;;5002867;28;20181;-64
2023/03/14 00:18:40;;;;;;;16.70;3.83;;;20.80;92.60;;;;;;5008293;28;20186;-71
2023/03/14 00:21:10;;;;;;;17.37;3.97;;;20.90;92.80;;;;;;5014799;28;20691;-73
2023/03/14 00:23:40;;;;;;;18.00;3.97;;;20.90;92.90;;;;;;5014643;28;20189;-68
2023/03/14 00:26:10;;;;;;;15.87;4.17;;;21.00;93.10;;;;;;5006290;28;20189;-64
2023/03/14 00:28:38;;;;;;;16.30;4.30;;;21.10;93.10;;;;;;5015329;28;20181;-66
2023/03/14 00:31:07;;;;;;;15.77;4.17;;;21.10;93.10;;;;;;5014807;28;20205;-67
2023/03/14 00:33:34;;;;;;;19.57;4.70;;;21.20;93.20;;;;;;5002228;28;20212;-65
2023/03/14 00:36:05;;;;;;;16.43;4.17;;;21.20;92.90;;;;;;5005009;28;20219;-65
2023/03/14 00:38:33;;;;;;;15.73;3.63;;;21.10;93.00;;;;;;5014603;28;20200;-65
2023/03/14 00:41:05;;;;;;;16.17;3.73;;;21.20;93.00;;;;;;5014292;28;20683;-65
2023/03/14 00:43:32;;;;;;;18.97;4.60;;;21.30;93.10;;;;;;5014285;28;20652;-66
2023/03/14 00:46:00;;;;;;;17.67;3.73;;;21.30;93.10;;;;;;5014919;28;20184;-64
2023/03/14 00:48:27;;;;;;;17.83;4.47;;;21.40;93.00;;;;;;5015160;28;20180;-65
2023/03/14 00:50:55;;;;;;;22.43;4.43;;;21.30;92.80;;;;;;4997611;28;20269;-64
2023/03/14 00:53:23;;;;;;;22.93;4.47;;;21.30;92.90;;;;;;4999480;28;20177;-65
2023/03/14 00:55:50;;;;;;;18.03;4.50;;;21.30;92.90;;;;;;5013658;28;20318;-64
2023/03/14 00:58:19;;;;;;;23.00;4.90;;;21.40;92.90;;;;;;5013443;28;20712;-64
2023/03/14 01:00:47;;;;;;;19.20;5.17;;;21.50;93.00;;;;;;5013764;28;20371;-63
2023/03/14 01:03:15;;;;;;;20.63;4.40;;;21.60;93.00;;;;;;5014776;28;20172;-64
2023/03/14 01:05:43;;;;;;;19.63;4.60;;;21.60;92.50;;;;;;5014021;28;20223;-66
2023/03/14 01:08:11;;;;;;;27.13;5.50;;;21.40;92.50;;;;;;5014475;28;20671;-65
2023/03/14 01:10:42;;;;;;;18.83;5.40;;;21.50;92.60;;;;;;5014328;28;20658;-64
2023/03/14 01:13:10;;;;;;;26.60;5.70;;;21.50;92.60;;;;;;5014526;28;20229;-76
2023/03/14 01:15:38;;;;;;;27.60;5.37;;;21.60;92.70;;;;;;5013950;28;20185;-73
2023/03/14 01:18:05;;;;;;;20.53;5.17;;;21.60;92.70;;;;;;5014152;28;20276;-65
2023/03/14 01:20:33;;;;;;;26.63;5.10;;;21.60;92.70;;;;;;5014247;28;20244;-70
2023/03/14 01:23:00;;;;;;;13.57;4.30;;;21.60;92.60;;;;;;5014060;28;20665;-69
2023/03/14 01:25:27;;;;;;;17.20;4.80;;;21.60;92.50;;;;;;5013811;28;20219;-72
2023/03/14 01:27:55;;;;;;;24.40;5.33;;;21.60;92.60;;;;;;4996529;28;20632;-75
2023/03/14 01:30:22;;;;;;;27.50;5.13;;;21.50;92.50;;;;;;5004297;28;20534;-66
2023/03/14 01:32:49;;;;;;;26.30;5.63;;;21.60;92.70;;;;;;4994571;28;20240;-72
2023/03/14 01:35:17;;;;;;;22.77;5.30;;;21.60;92.60;;;;;;4994550;28;20265;-76
2023/03/14 01:37:44;;;;;;;15.93;4.47;;;21.50;92.30;;;;;;5010768;28;20251;-69
2023/03/14 01:40:16;;;;;;;16.13;4.57;;;21.40;92.10;;;;;;4998023;28;20279;-69
2023/03/14 01:42:56;;;;;;;23.80;5.87;;;21.50;92.30;;;;;;4985757;28;20225;-74
2023/03/14 01:46:00;;;;;;;22.73;5.80;;;21.60;92.60;;;;;;4987423;28;20188;-74
2023/03/14 01:48:32;;;;;;;21.00;5.57;;;21.80;92.60;;;;;;4985836;28;20559;-70
2023/03/14 01:51:01;;;;;;;18.70;4.37;;;22.00;92.70;;;;;;4996032;28;20197;-73
2023/03/14 01:53:29;;;;;;;18.37;4.83;;;22.20;92.30;;;;;;4995488;28;20189;-73
2023/03/14 01:55:58;;;;;;;16.70;4.57;;;22.30;91.90;;;;;;4989902;28;20194;-65
2023/03/14 01:58:28;;;;;;;18.10;4.60;;;22.40;91.50;;;;;;4987384;28;20189;-66
2023/03/14 02:00:57;;;;;;;20.93;4.27;;;22.60;91.30;;;;;;4989419;28;20571;-69
2023/03/14 02:03:27;;;;;;;18.77;4.27;;;22.70;91.30;;;;;;4999529;28;20702;-66
2023/03/14 02:06:00;;;;;;;21.50;4.40;;;22.80;90.00;;;;;;4991887;28;20188;-79
2023/03/14 02:08:28;;;;;;;16.93;3.67;;;22.90;90.40;;;;;;4989511;28;20182;-74
2023/03/14 02:10:55;;;;;;;15.90;4.10;;;22.80;89.30;;;;;;4991472;28;20560;-75
2023/03/14 02:13:23;;;;;;;15.00;4.23;;;22.90;89.20;;;;;;4991377;28;20269;-77
2023/03/14 02:15:51;;;;;;;13.97;3.90;;;23.00;88.60;;;;;;4990917;28;20185;-78
2023/03/14 02:18:19;;;;;;;17.10;6.97;;;23.10;88.60;;;;;;4986040;28;20668;-77
2023/03/14 02:20:58;;;;;;;20.73;9.83;;;23.00;87.80;;;;;;4990335;28;20298;-77
2023/03/14 02:23:34;;;;;;;14.20;3.27;;;23.10;87.70;;;;;;4984324;28;20633;-68
2023/03/14 02:26:17;;;;;;;12.10;3.47;;;22.80;86.00;;;;;;4995551;28;20228;-74
2023/03/14 02:28:44;;;;;;;18.73;4.07;;;22.80;86.70;;;;;;4984614;28;20183;-75
2023/03/14 02:31:12;;;;;;;17.10;4.07;;;22.90;86.80;;;;;;4992152;28;20194;-74
2023/03/14 02:33:40;;;;;;;13.07;3.87;;;22.90;87.00;;;;;;4996308;28;20192;-76
2023/03/14 02:36:12;;;;;;;17.50;3.90;;;22.90;86.40;;;;;;4988756;28;20225;-76
2023/03/14 02:38:52;;;;;;;14.47;5.47;;;22.70;85.70;;;;;;4987201;28;20182;-75
2023/03/14 02:41:19;;;;;;;19.50;4.63;;;22.70;85.50;;;;;;4989654;28;20224;-74
2023/03/14 02:43:47;;;;;;;15.73;3.80;;;22.60;85.40;;;;;;4986064;28;20273;-74
2023/03/14 02:46:19;;;;;;;19.77;4.23;;;22.70;86.20;;;;;;4985644;28;20553;-74
2023/03/14 02:48:56;;;;;;;18.47;3.90;;;22.70;86.60;;;;;;4990317;28;20182;-76
2023/03/14 02:51:24;;;;;;;15.70;3.97;;;22.60;86.50;;;;;;4991605;28;20243;-74
2023/03/14 02:53:51;;;;;;;14.93;3.70;;;22.60;87.20;;;;;;4992182;28;20237;-73
2023/03/14 02:56:19;;;;;;;20.17;3.97;;;22.50;86.60;;;;;;4994021;28;20195;-68
2023/03/14 02:58:46;;;;;;;15.27;4.00;;;22.30;86.80;;;;;;4995780;28;20193;-68
2023/03/14 03:01:13;;;;;;;19.77;4.13;;;22.40;87.10;;;;;;5011825;28;20201;-72
2023/03/14 03:03:41;;;;;;;18.23;4.47;;;22.40;87.50;;;;;;5012260;28;20181;-77
2023/03/14 03:06:08;;;;;;;16.43;4.73;;;22.70;88.00;;;;;;5003644;28;20260;-76
2023/03/14 03:08:36;;;;;;;18.17;4.53;;;22.70;87.90;;;;;;4996601;28;20220;-67
2023/03/14 03:11:03;;;;;;;18.20;4.97;;;23.00;88.00;;;;;;4999798;28;20180;-78
2023/03/14 03:13:30;;;;;;;22.27;4.33;;;23.20;88.40;;;;;;5012234;28;20216;-78
2023/03/14 03:15:58;;;;;;;20.67;3.80;;;23.30;87.70;;;;;;4996822;28;20185;-76
2023/03/14 03:18:25;;;;;;;16.20;3.67;;;23.40;87.60;;;;;;4999684;28;20181;-76
2023/03/14 03:20:53;;;;;;;21.57;4.03;;;23.40;87.20;;;;;;5007380;28;20241;-76
2023/03/14 03:23:20;;;;;;;19.97;4.53;;;23.30;86.60;;;;;;4999144;28;20182;-77
2023/03/14 03:25:51;;;;;;;12.10;4.07;;;23.10;86.30;;;;;;4994716;28;20189;-76
2023/03/14 03:28:19;;;;;;;12.13;3.40;;;22.80;87.10;;;;;;4995732;28;20664;-68
2023/03/14 03:30:47;;;;;;;14.30;3.97;;;22.30;87.70;;;;;;4989462;28;20308;-65
2023/03/14 03:33:15;;;;;;;10.47;3.17;;;22.20;89.30;;;;;;5015387;28;20185;-68
2023/03/14 03:35:50;;;;;;;9.23;2.90;;;21.90;89.50;;;;;;4997812;28;20193;-76
2023/03/14 03:38:19;;;;;;;12.23;3.33;;;21.80;89.50;;;;;;5014962;28;20204;-65
2023/03/14 03:40:47;;;;;;;12.20;3.10;;;21.80;90.00;;;;;;5002324;28;20692;-65
2023/03/14 03:43:14;;;;;;;15.47;4.00;;;21.70;90.10;;;;;;5014467;28;20248;-68
2023/03/14 03:45:41;;;;;;;10.67;3.40;;;21.70;90.40;;;;;;5014961;28;20204;-69
2023/03/14 03:48:09;;;;;;;13.00;3.43;;;21.80;90.40;;;;;;5015664;28;20289;-71
2023/03/14 03:50:36;;;;;;;9.73;3.23;;;21.60;89.80;;;;;;5004393;28;20174;-64
2023/03/14 03:53:04;;;;;;;11.93;3.40;;;21.70;90.10;;;;;;5005856;28;20189;-77
2023/03/14 03:55:31;;;;;;;16.73;4.07;;;21.80;90.60;;;;;;5002575;28;20236;-69
2023/03/14 03:57:58;;;;;;;15.63;4.07;;;21.90;90.40;;;;;;5009562;28;20185;-69
2023/03/14 04:00:26;;;;;;;12.57;3.73;;;22.00;90.30;;;;;;4983880;28;20684;-65
2023/03/14 04:02:53;;;;;;;14.33;3.60;;;22.00;89.80;;;;;;4993932;28;20178;-71
2023/03/14 04:05:21;;;;;;;11.87;3.20;;;22.00;90.00;;;;;;4993535;28;20655;-66
2023/03/14 04:07:48;;;;;;;13.60;3.60;;;22.10;90.10;;;;;;5000942;28;20186;-68
2023/03/14 04:10:16;;;;;;;14.27;3.97;;;22.20;89.80;;;;;;4989472;28;20174;-67
2023/03/14 04:12:43;;;;;;;12.23;3.80;;;22.20;89.40;;;;;;5014245;28;20219;-65
2023/03/14 04:15:11;;;;;;;13.60;3.57;;;22.20;89.80;;;;;;4992697;28;20210;-65
2023/03/14 04:17:38;;;;;;;13.30;3.13;;;22.20;89.40;;;;;;4991288;28;20182;-64
2023/03/14 04:20:10;;;;;;;15.27;3.80;;;22.30;89.50;;;;;;4998139;28;20193;-64
2023/03/14 04:22:38;;;;;;;13.00;3.33;;;22.40;89.20;;;;;;5015064;28;20603;-64
2023/03/14 04:25:06;;;;;;;14.50;3.27;;;22.60;89.20;;;;;;5007119;28;20608;-77
2023/03/14 04:27:34;;;;;;;9.63;3.20;;;22.50;88.30;;;;;;5003167;28;20178;-76
2023/03/14 04:30:01;;;;;;;10.33;3.20;;;22.60;88.50;;;;;;5002852;28;20478;-74
2023/03/14 04:32:29;;;;;;;14.87;3.37;;;22.60;87.90;;;;;;4994197;28;20189;-75
2023/03/14 04:34:56;;;;;;;9.50;3.17;;;22.80;88.10;;;;;;5013803;28;20185;-75
2023/03/14 04:37:23;;;;;;;15.27;2.93;;;22.70;86.10;;;;;;5014597;28;20185;-72
2023/03/14 04:39:50;;;;;;;8.80;2.83;;;22.60;85.00;;;;;;5014665;28;20204;-64
2023/03/14 04:42:18;;;;;;;10.63;2.87;;;22.80;84.70;;;;;;4997043;28;20185;-65
2023/03/14 04:44:46;;;;;;;10.77;2.93;;;22.90;84.90;;;;;;5014124;28;20177;-66
2023/03/14 04:47:14;;;;;;;14.13;3.20;;;23.20;85.10;;;;;;5014387;28;20261;-66
2023/03/14 04:49:41;;;;;;;12.77;3.23;;;23.50;84.50;;;;;;4995904;28;20169;-68
2023/03/14 04:52:08;;;;;;;11.73;3.03;;;23.70;84.00;;;;;;4995018;28;20178;-67
2023/03/14 04:54:36;;;;;;;11.33;3.30;;;23.80;83.90;;;;;;4988797;28;20235;-73
2023/03/14 04:57:03;;;;;;;14.23;3.60;;;24.00;84.00;;;;;;4992891;28;20190;-70
2023/03/14 04:59:30;;;;;;;12.33;3.77;;;24.00;83.90;;;;;;4983720;28;20174;-67
2023/03/14 05:01:58;;;;;;;13.93;3.53;;;24.40;83.40;;;;;;4973352;28;20226;-70
2023/03/14 05:04:25;;;;;;;11.37;3.07;;;24.40;83.40;;;;;;4980086;28;20260;-69
2023/03/14 05:06:52;;;;;;;16.77;3.47;;;24.40;82.70;;;;;;4994880;28;20240;-69
2023/03/14 05:09:20;;;;;;;14.67;3.37;;;24.40;82.50;;;;;;4993052;28;20185;-70
2023/03/14 05:11:47;;;;;;;11.17;2.77;;;24.40;82.00;;;;;;4992295;28;20273;-67
2023/03/14 05:14:14;;;;;;;15.40;3.60;;;24.60;82.60;;;;;;4992535;28;20233;-68
2023/03/14 05:16:42;;;;;;;14.00;3.70;;;24.50;82.70;;;;;;4994495;28;20190;-70
2023/03/14 05:19:10;;;;;;;15.43;3.87;;;24.30;82.50;;;;;;4992696;28;20621;-73
2023/03/14 05:21:38;;;;;;;18.63;4.00;;;24.30;82.80;;;;;;5001647;28;20291;-67
2023/03/14 05:24:05;;;;;;;17.37;3.67;;;24.30;82.90;;;;;;4991087;28;20185;-68
2023/03/14 05:26:33;;;;;;;15.83;3.53;;;24.20;82.80;;;;;;4993666;28;20193;-76
2023/03/14 05:29:00;;;;;;;20.77;4.57;;;24.20;82.10;;;;;;4992128;28;20186;-73
2023/03/14 05:31:28;;;;;;;19.90;4.43;;;24.20;82.60;;;;;;4996520;28;20592;-73
2023/03/14 05:33:55;;;;;;;19.10;4.20;;;24.30;82.60;;;;;;5007209;28;20543;-77
2023/03/14 05:36:22;;;;;;;17.60;4.13;;;24.50;82.90;;;;;;4991163;28;20656;-67
2023/03/14 05:38:50;;;;;;;19.23;4.20;;;24.40;82.20;;;;;;5009549;28;20185;-68
2023/03/14 05:41:17;;;;;;;15.07;4.67;;;24.60;82.10;;;;;;4999727;28;20222;-67
2023/03/14 05:43:44;;;;;;;15.17;3.53;;;24.40;81.20;;;;;;4998094;28;20594;-66
2023/03/14 05:46:11;;;;;;;21.37;4.87;;;24.80;81.40;;;;;;4997830;28;20181;-66
2023/03/14 05:48:40;;;;;;;16.70;4.17;;;24.80;80.60;;;;;;5008472;28;20702;-67
2023/03/14 05:51:07;;;;;;;14.30;3.30;;;24.70;81.30;;;;;;4996539;28;20194;-66
2023/03/14 05:53:35;;;;;;;22.80;4.60;;;24.80;80.00;;;;;;5004107;28;20177;-67
2023/03/14 05:56:02;;;;;;;14.27;3.23;;;24.60;80.70;;;;;;4990887;28;20421;-66
2023/03/14 05:58:29;;;;;;;13.00;3.47;;;24.70;81.40;;;;;;4997745;28;20223;-66
2023/03/14 06:00:56;;;;;;;15.17;3.33;;;24.80;82.30;;;;;;5011230;28;20210;-67
2023/03/14 06:03:24;;;;;;;17.37;4.37;;;25.10;82.00;;;;;;4992408;28;20247;-67
2023/03/14 06:05:52;;;;;;;16.43;3.43;;;25.20;81.50;;;;;;4990757;28;20212;-67
2023/03/14 06:08:19;;;;;;;14.67;3.63;;;25.60;79.90;;;;;;4987196;28;20276;-67
2023/03/14 06:10:46;;;;;;;17.67;4.00;;;25.80;78.80;;;;;;4994237;28;20182;-71
2023/03/14 06:13:15;;;;;;;20.17;3.70;;;26.00;78.10;;;;;;4987072;28;20233;-73
2023/03/14 06:15:42;;;;;;;16.67;3.53;;;25.70;77.20;;;;;;4990426;28;20637;-69
2023/03/14 06:18:10;;;;;;;16.17;3.53;;;25.70;77.80;;;;;;5005342;28;20208;-70
2023/03/14 06:20:41;;;;;;;12.73;3.37;;;25.50;77.80;;;;;;4993385;28;20216;-72
2023/03/14 06:23:09;;;;;;;16.30;3.83;;;25.20;78.30;;;;;;5007294;28;20535;-73
2023/03/14 06:25:37;;;;;;;15.10;3.33;;;24.80;77.70;;;;;;4996685;28;20191;-73
2023/03/14 06:28:04;;;;;;;15.50;3.53;;;24.60;78.50;;;;;;4989745;28;20182;-76
2023/03/14 06:30:32;;;;;;;21.40;3.57;;;24.70;78.70;;;;;;4989291;28;20549;-73
2023/03/14 06:32:59;;;;;;;16.10;3.47;;;24.70;78.80;;;;;;4990929;28;20240;-74
2023/03/14 06:35:27;;;;;;;16.53;3.37;;;24.90;78.90;;;;;;4970453;28;20793;-71
2023/03/14 06:37:54;;;;;;;14.30;3.27;;;25.00;78.40;;;;;;4992125;28;20182;-74
2023/03/14 06:40:22;;;;;;;18.63;4.07;;;25.60;77.90;;;;;;4990912;28;20220;-73
2023/03/14 06:42:49;;;;;;;13.83;3.67;;;25.80;77.20;;;;;;4990498;28;20186;-75
2023/03/14 06:45:17;;;;;;;19.27;4.23;;;25.80;77.80;;;;;;4991970;28;20186;-72
2023/03/14 06:47:44;;;;;;;17.57;3.77;;;25.80;76.70;;;;;;4990913;28;20174;-73
2023/03/14 06:50:12;;;;;;;18.90;3.80;;;25.50;76.10;;;;;;4990990;28;20178;-74
2023/03/14 06:52:47;;;;;;;13.53;3.20;;;25.20;77.40;;;;;;4988861;28;20186;-72
2023/03/14 06:55:15;;;;;;;21.70;4.20;;;25.20;78.30;;;;;;4988513;28;20181;-74
2023/03/14 06:57:43;;;;;;;19.53;3.37;;;25.20;79.50;;;;;;4987552;28;20182;-73
2023/03/14 07:00:12;;;;;;;14.73;3.40;;;25.20;80.00;;;;;;4990756;28;20548;-72
2023/03/14 07:02:41;;;;;;;17.47;3.80;;;25.10;80.00;;;;;;4989775;28;20759;-73
2023/03/14 07:05:10;;;;;;;14.83;3.63;;;24.80;79.80;;;;;;4982153;28;20185;-74
2023/03/14 07:07:37;;;;;;;17.43;3.60;;;24.80;80.00;;;;;;4989388;28;20269;-73
2023/03/14 07:10:05;;;;;;;19.17;3.73;;;24.50;80.70;;;;;;4990397;28;20186;-73
2023/03/14 07:12:33;;;;;;;16.07;3.93;;;24.30;80.90;;;;;;4992410;28;20245;-73
2023/03/14 07:15:03;;;;;;;20.10;3.87;;;24.20;81.70;;;;;;4991635;28;20185;-74
2023/03/14 07:17:31;;;;;;;14.33;3.50;;;24.00;82.50;;;;;;4991649;28;20185;-72
2023/03/14 07:19:59;;;;;;;12.67;3.07;;;23.80;82.70;;;;;;4987820;28;20210;-74
2023/03/14 07:22:26;;;;;;;16.27;3.63;;;23.70;82.90;;;;;;4970877;28;20182;-73
2023/03/14 07:24:53;;;;;;;16.63;3.40;;;23.60;83.30;;;;;;4987440;28;20182;-74
2023/03/14 07:27:21;;;;;;;14.97;3.33;;;23.40;84.00;;;;;;4988276;28;20221;-72
2023/03/14 07:29:48;;;;;;;20.13;4.60;;;23.20;84.60;;;;;;4990393;28;20664;-77
2023/03/14 07:32:15;;;;;;;16.53;4.47;;;22.80;86.20;;;;;;4991453;28;20179;-77
2023/03/14 07:34:43;;;;;;;13.17;3.90;;;22.40;88.10;;;;;;4992603;28;20174;-78
2023/03/14 07:37:10;;;;;;;13.60;3.63;;;22.30;89.20;;;;;;4991680;28;20232;-79
2023/03/14 07:39:38;;;;;;;16.00;3.67;;;22.30;89.80;;;;;;4989769;28;20197;-80
2023/03/14 07:42:05;;;;;;;10.73;3.03;;;22.20;90.40;;;;;;4991905;28;20186;-75
2023/03/14 07:44:34;;;;;;;11.50;3.07;;;22.10;90.30;;;;;;4988925;28;20170;-77
2023/03/14 07:47:01;;;;;;;9.63;3.50;;;21.90;90.30;;;;;;4991851;28;20277;-79
2023/03/14 07:49:29;;;;;;;4.80;2.37;;;21.80;90.80;;;;;;4986887;28;20275;-79
2023/03/14 07:51:56;;;;;;;9.90;3.00;;;21.60;90.90;;;;;;4972768;28;20630;-78
2023/03/14 07:54:24;;;;;;;9.07;2.73;;;21.70;91.40;;;;;;4990055;28;20197;-79
2023/03/14 07:56:52;;;;;;;7.63;2.77;;;21.70;91.70;;;;;;4989798;28;20186;-77
2023/03/14 07:59:20;;;;;;;9.73;2.67;;;21.70;91.70;;;;;;4991222;28;20197;-78
2023/03/14 08:01:47;;;;;;;9.67;2.77;;;21.70;91.60;;;;;;4983258;28;20407;-73
2023/03/14 08:04:15;;;;;;;12.07;3.03;;;21.60;91.60;;;;;;4990851;28;20268;-78
2023/03/14 08:06:42;;;;;;;11.97;2.90;;;21.60;91.60;;;;;;4992009;28;20190;-75
2023/03/14 08:09:10;;;;;;;10.87;2.83;;;21.60;91.60;;;;;;4991607;28;20273;-71
2023/03/14 08:11:37;;;;;;;8.87;3.07;;;21.60;91.60;;;;;;4996576;28;20177;-75
2023/03/14 08:14:05;;;;;;;13.30;3.33;;;21.60;91.70;;;;;;5004546;28;20225;-67
2023/03/14 08:16:32;;;;;;;8.27;2.83;;;21.60;91.70;;;;;;5006137;28;20182;-71
2023/03/14 08:18:59;;;;;;;10.37;3.50;;;21.60;91.70;;;;;;4995463;28;20190;-73
2023/03/14 08:21:27;;;;;;;14.07;3.93;;;21.60;91.80;;;;;;5011942;28;20586;-65
2023/03/14 08:23:54;;;;;;;18.97;4.70;;;21.60;91.80;;;;;;4998729;28;20170;-75
2023/03/14 08:26:21;;;;;;;12.63;4.40;;;21.60;91.80;;;;;;4997315;28;20190;-73
2023/03/14 08:28:49;;;;;;;16.13;4.30;;;21.60;91.90;;;;;;4988506;28;20173;-67
2023/03/14 08:31:16;;;;;;;16.17;4.37;;;21.60;92.00;;;;;;5005683;28;20185;-68
2023/03/14 08:33:44;;;;;;;10.30;3.77;;;21.60;92.00;;;;;;5005987;28;20186;-73
2023/03/14 08:36:11;;;;;;;11.20;4.07;;;21.60;92.00;;;;;;5003371;28;20177;-67
2023/03/14 08:38:42;;;;;;;11.60;4.53;;;21.60;92.00;;;;;;5012530;28;20177;-76
2023/03/14 08:41:09;;;;;;;16.97;4.50;;;21.60;92.10;;;;;;4999046;28;20782;-78
2023/03/14 08:43:37;;;;;;;15.50;4.77;;;21.50;92.10;;;;;;5012285;28;20174;-78
2023/03/14 08:46:05;;;;;;;15.20;4.80;;;21.50;92.20;;;;;;5000726;28;20641;-73
2023/03/14 08:48:32;;;;;;;12.07;4.57;;;21.60;92.30;;;;;;5014352;28;20173;-78
2023/03/14 08:51:13;;;;;;;13.97;4.90;;;21.60;92.40;;;;;;5005094;28;20213;-78
2023/03/14 08:53:41;;;;;;;13.83;4.80;;;21.60;92.40;;;;;;4992550;28;20192;-77
2023/03/14 08:56:10;;;;;;;12.20;4.93;;;21.50;92.40;;;;;;5001252;28;20170;-77
2023/03/14 08:58:37;;;;;;;17.30;5.70;;;21.50;92.50;;;;;;4996074;28;20194;-76
2023/03/14 09:01:10;;;;;;;18.50;8.67;;;21.50;92.50;;;;;;4996319;28;20236;-76
2023/03/14 09:03:38;;;;;;;19.60;7.33;;;21.50;92.60;;;;;;4998473;28;20631;-77
2023/03/14 09:06:08;;;;;;;21.23;7.77;;;21.50;92.70;;;;;;4990219;28;20182;-72
2023/03/14 09:08:35;;;;;;;18.60;6.80;;;21.50;92.70;;;;;;4992343;28;20244;-77
2023/03/14 09:11:03;;;;;;;14.57;5.57;;;21.50;92.80;;;;;;4999326;28;20546;-75
2023/03/14 09:13:30;;;;;;;16.90;6.97;;;21.50;92.80;;;;;;5009352;28;20638;-76
2023/03/14 09:15:58;;;;;;;19.53;6.53;;;21.50;92.80;;;;;;5009808;28;20223;-70
2023/03/14 09:18:25;;;;;;;15.57;6.13;;;21.50;92.90;;;;;;5009408;28;20533;-77
2023/03/14 09:20:52;;;;;;;12.33;5.43;;;21.50;93.00;;;;;;5001376;28;20305;-75
2023/03/14 09:23:20;;;;;;;18.33;4.80;;;21.50;92.90;;;;;;5008442;28;20193;-76
2023/03/14 09:25:47;;;;;;;19.40;5.87;;;21.40;92.90;;;;;;5001160;28;20272;-75
2023/03/14 09:28:14;;;;;;;18.93;5.83;;;21.40;93.00;;;;;;5011406;28;20177;-69
2023/03/14 09:30:42;;;;;;;19.13;6.03;;;21.40;93.10;;;;;;5011101;28;20273;-72
2023/03/14 09:33:09;;;;;;;16.20;5.97;;;21.40;93.10;;;;;;4999694;28;20232;-76
2023/03/14 09:35:36;;;;;;;16.90;6.20;;;21.40;93.20;;;;;;5013239;28;20177;-72
2023/03/14 09:38:05;;;;;;;16.73;6.07;;;21.40;93.20;;;;;;4993872;28;20624;-76
2023/03/14 09:40:36;;;;;;;17.23;5.67;;;21.50;93.30;;;;;;5013561;28;20234;-76
2023/03/14 09:43:04;;;;;;;15.33;5.53;;;21.40;93.30;;;;;;5001691;28;20648;-75
2023/03/14 09:45:40;;;;;;;14.20;4.90;;;21.30;93.30;;;;;;5013326;28;20532;-73
2023/03/14 09:48:17;;;;;;;12.73;4.90;;;21.30;93.30;;;;;;4995882;28;20177;-75
2023/03/14 09:50:58;;;;;;;16.23;5.87;;;21.30;93.30;;;;;;5005696;28;20196;-73
2023/03/14 09:53:29;;;;;;;14.90;5.00;;;21.30;93.30;;;;;;5003181;28;20185;-70
2023/03/14 09:55:59;;;;;;;19.83;5.83;;;21.30;93.40;;;;;;4993591;28;20586;-65
2023/03/14 09:58:28;;;;;;;16.70;5.50;;;21.20;93.40;;;;;;4992994;28;20307;-69
2023/03/14 10:00:58;;;;;;;15.33;6.07;;;21.20;93.40;;;;;;4993696;28;20676;-72
2023/03/14 10:03:36;;;;;;;15.40;6.03;;;21.20;93.40;;;;;;4993232;28;20178;-65
2023/03/14 10:06:09;;;;;;;17.43;7.13;;;21.20;93.50;;;;;;4993050;28;20184;-68
2023/03/14 10:08:39;;;;;;;21.87;7.47;;;21.20;93.50;;;;;;4993472;28;20178;-64
2023/03/14 10:11:07;;;;;;;19.10;7.40;;;21.20;93.60;;;;;;4993433;28;20173;-69
2023/03/14 10:13:34;;;;;;;25.63;9.40;;;21.30;93.60;;;;;;4992147;28;20256;-72
2023/03/14 10:16:08;;;;;;;18.17;8.23;;;21.30;93.60;;;;;;4993105;28;20664;-64
2023/03/14 10:18:35;;;;;;;20.17;7.73;;;21.30;93.60;;;;;;4993076;28;20174;-65
2023/03/14 10:21:21;;;;;;;18.37;8.37;;;21.30;93.60;;;;;;4992870;28;20248;-71
2023/03/14 10:23:51;;;;;;;17.20;7.97;;;21.30;93.70;;;;;;4991826;28;20204;-69
2023/03/14 10:26:27;;;;;;;20.43;7.87;;;21.30;93.70;;;;;;4988944;28;20640;-73
2023/03/14 10:29:05;;;;;;;18.50;7.63;;;21.20;93.70;;;;;;4991031;28;20185;-70
2023/03/14 10:31:47;;;;;;;15.07;7.83;;;21.30;93.80;;;;;;4989531;28;20189;-65
2023/03/14 10:34:21;;;;;;;20.67;7.83;;;21.20;93.80;;;;;;4992926;28;20266;-67
2023/03/14 10:36:54;;;;;;;24.23;8.13;;;21.20;93.80;;;;;;4992699;28;20228;-68
2023/03/14 10:39:34;;;;;;;16.30;7.27;;;21.20;93.80;;;;;;4992991;28;20285;-69
2023/03/14 10:42:35;;;;;;;18.90;7.83;;;21.20;93.90;;;;;;4990602;28;20247;-66
2023/03/14 10:45:07;;;;;;;23.97;8.10;;;21.20;93.90;;;;;;4973223;28;20182;-65
2023/03/14 10:47:34;;;;;;;24.67;8.80;;;21.20;93.80;;;;;;4992289;28;20237;-65
2023/03/14 10:50:25;;;;;;;22.00;7.90;;;21.30;93.90;;;;;;4992431;28;20186;-64
2023/03/14 10:52:54;;;;;;;21.43;8.50;;;21.30;93.90;;;;;;4991767;28;20174;-67
2023/03/14 10:55:23;;;;;;;16.17;7.97;;;21.30;93.90;;;;;;4992215;28;20277;-66
2023/03/14 10:57:51;;;;;;;17.73;8.57;;;21.30;93.90;;;;;;4992174;28;20224;-64
2023/03/14 11:00:21;;;;;;;17.63;7.87;;;21.20;93.90;;;;;;4990669;28;20240;-65
2023/03/14 11:03:06;;;;;;;16.83;8.10;;;21.20;94.00;;;;;;4988990;28;20629;-66
2023/03/14 11:05:49;;;;;;;15.43;7.67;;;21.20;94.00;;;;;;4989770;28;20174;-66
2023/03/14 11:08:30;;;;;;;17.10;8.70;;;21.20;94.00;;;;;;4991420;28;20178;-70
2023/03/14 11:11:25;;;;;;;20.57;8.27;;;21.20;94.10;;;;;;4989888;28;20193;-72
2023/03/14 11:14:12;;;;;;;20.20;8.40;;;21.20;94.10;;;;;;4986963;28;20225;-77
2023/03/14 11:16:56;;;;;;;24.33;8.80;;;21.20;94.10;;;;;;4992772;28;20182;-75
2023/03/14 11:20:03;;;;;;;22.30;8.03;;;21.20;94.10;;;;;;4990662;28;20217;-75
2023/03/14 11:22:40;;;;;;;21.53;8.53;;;21.20;94.10;;;;;;4982303;28;20217;-73
2023/03/14 11:25:16;;;;;;;17.57;8.73;;;21.30;94.20;;;;;;4988450;28;20193;-74
2023/03/14 11:27:58;;;;;;;22.27;8.13;;;21.30;94.20;;;;;;4990985;28;20243;-75
2023/03/14 11:30:29;;;;;;;17.63;8.30;;;21.20;94.10;;;;;;4980399;28;20529;-70
2023/03/14 11:33:17;;;;;;;20.10;8.63;;;21.20;94.20;;;;;;4991575;28;20182;-68
2023/03/14 11:35:56;;;;;;;20.60;9.40;;;21.20;94.20;;;;;;4991899;28;20649;-69
2023/03/14 11:38:29;;;;;;;23.10;9.53;;;21.20;94.20;;;;;;4990490;28;20170;-65
2023/03/14 11:40:58;;;;;;;23.57;10.07;;;21.20;94.20;;;;;;4986722;28;20214;-64
2023/03/14 11:43:42;;;;;;;18.67;9.87;;;21.20;94.20;;;;;;4991697;28;20539;-69
2023/03/14 11:46:31;;;;;;;17.63;9.20;;;21.10;94.20;;;;;;4994575;28;20182;-65
2023/03/14 11:49:04;;;;;;;15.63;9.20;;;21.10;94.20;;;;;;4995027;28;20210;-64
2023/03/14 11:51:40;;;;;;;16.80;9.87;;;21.00;94.20;;;;;;4993945;28;20240;-68
2023/03/14 11:54:34;;;;;;;19.00;10.30;;;21.10;94.20;;;;;;4995907;28;20186;-65
2023/03/14 11:57:17;;;;;;;22.67;10.03;;;21.00;94.20;;;;;;4995367;28;20192;-67
2023/03/14 12:00:18;;;;;;;16.77;10.30;;;21.00;94.20;;;;;;4995213;28;20556;-67
2023/03/14 12:03:02;;;;;;;19.07;10.53;;;20.90;94.30;;;;;;4984404;28;20235;-66
2023/03/14 12:06:04;;;;;;;18.50;10.53;;;21.00;94.30;;;;;;4990961;28;20269;-67
2023/03/14 12:08:37;;;;;;;22.07;10.40;;;20.90;94.30;;;;;;4994797;28;20204;-68
2023/03/14 12:11:14;;;;;;;19.30;10.87;;;20.90;94.30;;;;;;4994070;28;20240;-68
2023/03/14 12:13:46;;;;;;;17.90;10.83;;;21.00;94.30;;;;;;4994355;28;20225;-70
2023/03/14 12:16:36;;;;;;;17.53;11.80;;;21.00;94.30;;;;;;4995504;28;20272;-66
2023/03/14 12:19:25;;;;;;;17.80;10.60;;;21.00;94.30;;;;;;4984315;28;20262;-66
2023/03/14 12:22:00;;;;;;;21.53;12.60;;;21.00;94.40;;;;;;4994207;28;20234;-67
2023/03/14 12:24:35;;;;;;;18.40;13.13;;;21.00;94.30;;;;;;4995899;28;20184;-76
2023/03/14 12:27:04;;;;;;;22.23;12.60;;;20.90;94.30;;;;;;4986731;28;20272;-75
2023/03/14 12:29:32;;;;;;;19.83;13.10;;;20.90;94.30;;;;;;4994954;28;20245;-74
2023/03/14 12:32:02;;;;;;;19.13;13.03;;;20.90;94.30;;;;;;4995174;28;20273;-75
2023/03/14 12:34:34;;;;;;;21.07;14.67;;;20.90;94.30;;;;;;4995522;28;20663;-75
2023/03/14 12:37:48;;;;;;;29.03;14.97;;;20.80;94.30;;;;;;4993132;28;20544;-69
2023/03/14 12:40:39;;;;;;;23.60;15.30;;;20.80;94.30;;;;;;4984265;28;20210;-74
2023/03/14 12:43:33;;;;;;;22.60;15.20;;;20.80;94.30;;;;;;4989379;28;20205;-75
2023/03/14 12:46:18;;;;;;;18.00;16.03;;;20.90;94.40;;;;;;4995251;28;20193;-76
2023/03/14 12:48:55;;;;;;;21.93;15.17;;;20.90;94.40;;;;;;4994481;28;20182;-75
2023/03/14 12:51:37;;;;;;;18.67;14.90;;;20.80;94.40;;;;;;4993285;28;20177;-75
2023/03/14 12:54:39;;;;;;;23.77;16.20;;;20.90;94.40;;;;;;4994283;28;20273;-75